Terminal Aerodrome Forecast
Issued by NWS Mt. Holly, NJ

Home | Current Version | Previous Version | Text Only | Print | Product List | Glossary On
Versions: 1 2 3 4 5 6 7 8 9 10 11
000
FTUS41 KPHI 281727
TAFTTN
TAF
KTTN 281727Z 2818/0118 30004KT P6SM SCT250
     FM010600 VRB02KT P6SM OVC120
     FM011400 12005KT P6SM OVC050
     FM011700 15004KT 6SM -SN OVC030=

USA.gov is the U.S. government's official web portal to all federal, state and local government web resources and services.